Time;durP1;ratioP1;P1;durP2;ratioP2;P2;SDS_P1;SDS_P2;PMS_P1;PMS_P2;Temp;Humidity;BMP_temperature;BMP_pressure;BME280_temperature;BME280_humidity;BME280_pressure;Samples;Min_cycle;Max_cycle;Signal;HPM_P1;HPM_P2
2023/06/30 01:07:32;;;;;;;13.67;13.17;;;22.20;99.90;;;;;;4854981;29;20518;-80
2023/06/30 01:10:07;;;;;;;13.40;12.70;;;22.30;99.90;;;;;;4861070;29;20477;-81
2023/06/30 01:12:36;;;;;;;14.17;13.60;;;22.20;99.90;;;;;;4860427;29;20989;-82
2023/06/30 01:15:06;;;;;;;14.00;13.40;;;22.20;99.90;;;;;;4864875;29;20480;-83
2023/06/30 01:17:40;;;;;;;14.10;13.50;;;22.20;99.90;;;;;;4866011;29;20568;-80
2023/06/30 01:20:11;;;;;;;14.17;13.37;;;22.20;99.90;;;;;;4863181;29;20981;-82
2023/06/30 01:22:44;;;;;;;13.80;13.30;;;22.10;99.90;;;;;;4859976;29;20703;-82
2023/06/30 01:25:19;;;;;;;14.83;14.13;;;22.10;99.90;;;;;;4860631;29;21034;-81
2023/06/30 01:27:49;;;;;;;14.53;13.60;;;22.10;99.90;;;;;;4861849;29;20500;-82
2023/06/30 01:30:18;;;;;;;13.77;13.27;;;22.10;99.90;;;;;;4863190;29;20852;-82
2023/06/30 01:32:50;;;;;;;14.87;14.17;;;22.10;99.90;;;;;;4863443;29;20490;-81
2023/06/30 01:35:18;;;;;;;15.50;14.90;;;22.10;99.90;;;;;;4851861;29;20471;-80
2023/06/30 01:37:48;;;;;;;15.30;14.40;;;22.10;99.90;;;;;;4857631;29;20569;-82
2023/06/30 01:40:17;;;;;;;14.50;13.70;;;22.10;99.90;;;;;;4862140;29;20461;-82
2023/06/30 01:42:47;;;;;;;14.70;14.03;;;22.10;99.90;;;;;;4864443;29;20587;-80
2023/06/30 01:45:16;;;;;;;14.40;13.80;;;22.00;99.90;;;;;;4868216;29;20452;-80
2023/06/30 01:47:45;;;;;;;14.87;14.13;;;22.00;99.90;;;;;;4857311;29;20567;-79
2023/06/30 01:50:14;;;;;;;14.60;13.90;;;22.00;99.90;;;;;;4861987;29;20461;-80
2023/06/30 01:52:42;;;;;;;14.40;13.90;;;22.10;99.90;;;;;;4863934;29;20452;-81
2023/06/30 01:55:12;;;;;;;14.53;13.93;;;22.00;99.90;;;;;;4865920;29;20460;-83
2023/06/30 01:57:40;;;;;;;14.90;14.20;;;22.00;99.90;;;;;;4861937;29;20476;-82
2023/06/30 02:00:09;;;;;;;14.20;13.60;;;21.90;99.90;;;;;;4863309;29;20460;-82
2023/06/30 02:02:37;;;;;;;14.43;13.83;;;21.90;99.90;;;;;;4864153;29;20491;-83
2023/06/30 02:05:06;;;;;;;13.67;13.17;;;21.90;99.90;;;;;;4858300;29;20886;-82
2023/06/30 02:07:34;;;;;;;14.90;14.30;;;21.80;99.90;;;;;;4862129;29;20509;-83
2023/06/30 02:10:03;;;;;;;14.43;13.93;;;21.80;99.90;;;;;;4863695;29;20489;-82
2023/06/30 02:12:32;;;;;;;15.27;14.57;;;21.80;99.90;;;;;;4862643;29;20978;-80
2023/06/30 02:15:01;;;;;;;14.73;14.13;;;21.80;99.90;;;;;;4860217;29;20556;-80
2023/06/30 02:17:31;;;;;;;15.37;14.67;;;21.80;99.90;;;;;;4860923;29;20506;-83
2023/06/30 02:20:00;;;;;;;15.37;14.67;;;21.70;99.90;;;;;;4865364;29;20547;-81
2023/06/30 02:22:28;;;;;;;15.33;14.53;;;21.80;99.90;;;;;;4862265;29;20485;-79
2023/06/30 02:24:56;;;;;;;15.23;14.60;;;21.70;99.90;;;;;;4860363;29;20464;-80
2023/06/30 02:27:25;;;;;;;14.90;14.20;;;21.70;99.90;;;;;;4861379;29;20529;-80
2023/06/30 02:29:54;;;;;;;14.43;13.93;;;21.70;99.90;;;;;;4862456;29;20967;-81
2023/06/30 02:32:23;;;;;;;15.63;14.90;;;21.60;99.90;;;;;;4862377;29;20770;-81
2023/06/30 02:34:51;;;;;;;15.03;14.43;;;21.60;99.90;;;;;;4858796;29;21005;-81
2023/06/30 02:37:19;;;;;;;15.73;15.00;;;21.60;99.90;;;;;;4860951;29;20871;-78
2023/06/30 02:39:47;;;;;;;15.60;14.80;;;21.60;99.90;;;;;;4863339;29;20454;-81
2023/06/30 02:42:15;;;;;;;15.33;14.73;;;21.60;99.90;;;;;;4862643;29;20498;-80
2023/06/30 02:44:44;;;;;;;15.60;14.70;;;21.60;99.90;;;;;;4861293;29;21165;-81
2023/06/30 02:47:13;;;;;;;14.93;14.33;;;21.60;99.90;;;;;;4860695;29;20496;-81
2023/06/30 02:49:41;;;;;;;14.80;14.20;;;21.70;99.90;;;;;;4861739;29;20900;-80
2023/06/30 02:52:09;;;;;;;15.50;14.83;;;21.70;99.90;;;;;;4864239;29;20476;-84
2023/06/30 02:54:37;;;;;;;14.53;14.03;;;21.70;99.90;;;;;;4859606;29;20853;-83
2023/06/30 02:57:06;;;;;;;15.37;14.73;;;21.70;99.90;;;;;;4857850;29;20501;-82
2023/06/30 02:59:34;;;;;;;15.43;14.63;;;21.70;99.90;;;;;;4862496;29;20582;-81
2023/06/30 03:02:02;;;;;;;15.90;15.20;;;21.70;99.90;;;;;;4860377;29;20505;-82
2023/06/30 03:04:33;;;;;;;15.10;14.40;;;21.70;99.90;;;;;;4864009;29;20500;-85
2023/06/30 03:07:01;;;;;;;15.33;14.73;;;21.70;99.90;;;;;;4862288;29;20494;-83
2023/06/30 03:09:29;;;;;;;16.23;15.60;;;21.60;99.90;;;;;;4860564;29;20962;-79
2023/06/30 03:11:57;;;;;;;16.07;15.17;;;21.60;99.90;;;;;;4859386;29;20460;-83
2023/06/30 03:14:25;;;;;;;16.23;15.43;;;21.60;99.90;;;;;;4866056;29;21040;-81
2023/06/30 03:16:54;;;;;;;16.67;16.00;;;21.60;99.90;;;;;;4859752;29;20519;-80
2023/06/30 03:19:22;;;;;;;16.83;16.03;;;21.60;99.90;;;;;;4863068;29;20464;-84
2023/06/30 03:21:51;;;;;;;16.40;15.70;;;21.60;99.90;;;;;;4861593;29;20502;-81
2023/06/30 03:24:19;;;;;;;16.00;15.30;;;21.60;99.90;;;;;;4857962;29;20464;-80
2023/06/30 03:26:47;;;;;;;15.53;14.80;;;21.60;99.90;;;;;;4856019;29;20494;-80
2023/06/30 03:29:16;;;;;;;15.80;15.00;;;21.50;99.90;;;;;;4862903;29;20890;-81
2023/06/30 03:31:44;;;;;;;16.17;15.47;;;21.40;99.90;;;;;;4852790;29;21235;-81
2023/06/30 03:34:12;;;;;;;16.10;15.40;;;21.40;99.90;;;;;;4860322;29;21013;-81
2023/06/30 03:36:40;;;;;;;15.93;15.33;;;21.50;99.90;;;;;;4858405;29;20826;-79
2023/06/30 03:39:10;;;;;;;16.70;15.73;;;21.50;99.90;;;;;;4854580;29;21064;-82
2023/06/30 03:41:38;;;;;;;16.73;16.03;;;21.40;99.90;;;;;;4850082;29;21041;-79
2023/06/30 03:44:06;;;;;;;16.50;15.80;;;21.40;99.90;;;;;;4860121;29;20621;-84
2023/06/30 03:46:36;;;;;;;16.70;16.00;;;21.40;99.90;;;;;;4852691;29;20484;-80
2023/06/30 03:49:04;;;;;;;16.47;15.53;;;21.30;99.90;;;;;;4857533;29;20518;-80
2023/06/30 03:51:32;;;;;;;17.27;16.40;;;21.30;99.90;;;;;;4859469;29;20477;-80
2023/06/30 03:54:00;;;;;;;16.60;15.90;;;21.30;99.90;;;;;;4861234;29;20878;-80
2023/06/30 03:56:29;;;;;;;16.73;15.93;;;21.30;99.90;;;;;;4858407;29;20491;-81
2023/06/30 03:58:58;;;;;;;16.23;15.50;;;21.30;99.90;;;;;;4856742;29;20459;-81
2023/06/30 04:01:26;;;;;;;18.20;17.00;;;21.50;99.90;;;;;;4853224;29;20853;-81
2023/06/30 04:03:54;;;;;;;17.40;16.43;;;21.40;99.90;;;;;;4856719;29;20571;-82
2023/06/30 04:06:22;;;;;;;17.07;16.17;;;21.40;99.90;;;;;;4852202;29;20475;-81
2023/06/30 04:08:50;;;;;;;17.37;16.30;;;21.40;99.90;;;;;;4860464;29;20461;-80
2023/06/30 04:11:18;;;;;;;16.87;15.97;;;21.30;99.90;;;;;;4863655;29;20467;-82
2023/06/30 04:13:49;;;;;;;15.50;14.80;;;21.30;99.90;;;;;;4859216;29;20462;-81
2023/06/30 04:16:17;;;;;;;16.37;15.67;;;21.30;99.90;;;;;;4861304;29;20495;-80
2023/06/30 04:18:45;;;;;;;15.90;15.20;;;21.30;99.90;;;;;;4860020;29;20463;-82
2023/06/30 04:21:14;;;;;;;16.23;15.63;;;21.30;99.90;;;;;;4861577;29;20466;-82
2023/06/30 04:23:42;;;;;;;15.73;15.13;;;21.40;99.90;;;;;;4860945;29;20527;-80
2023/06/30 04:26:10;;;;;;;16.93;16.20;;;21.40;99.90;;;;;;4861800;29;20913;-80
2023/06/30 04:28:38;;;;;;;16.63;15.90;;;21.50;99.90;;;;;;4861341;29;21023;-80
2023/06/30 04:31:07;;;;;;;16.90;16.10;;;21.50;99.90;;;;;;4861420;29;20460;-82
2023/06/30 04:33:35;;;;;;;15.53;14.90;;;21.60;99.90;;;;;;4858129;29;20452;-77
2023/06/30 04:36:07;;;;;;;17.03;16.20;;;21.60;99.90;;;;;;4849496;29;20505;-76
2023/06/30 04:38:35;;;;;;;16.33;15.50;;;21.70;99.90;;;;;;4853809;29;21623;-77
2023/06/30 04:41:03;;;;;;;17.40;16.67;;;21.70;99.90;;;;;;4856687;29;20514;-78
2023/06/30 04:43:32;;;;;;;16.50;15.80;;;21.70;99.90;;;;;;4857640;29;20491;-76
2023/06/30 04:46:01;;;;;;;18.00;17.20;;;21.70;99.90;;;;;;4857141;29;20473;-76
2023/06/30 04:48:30;;;;;;;18.67;17.77;;;21.70;99.90;;;;;;4859532;29;20559;-77
2023/06/30 04:50:58;;;;;;;22.13;20.73;;;21.70;99.90;;;;;;4858712;29;20464;-76
2023/06/30 04:53:26;;;;;;;20.40;19.10;;;21.60;99.90;;;;;;4843289;29;20478;-78
2023/06/30 04:55:55;;;;;;;20.17;19.10;;;21.50;1.00;;;;;;4854480;29;20535;-77
2023/06/30 04:58:23;;;;;;;19.10;18.20;;;21.40;1.00;;;;;;4858179;29;20475;-76
2023/06/30 05:00:51;;;;;;;20.07;18.97;;;21.30;97.10;;;;;;4854297;29;20981;-76
2023/06/30 05:03:19;;;;;;;19.77;18.87;;;21.20;99.90;;;;;;4859343;29;20492;-77
2023/06/30 05:05:49;;;;;;;19.47;18.57;;;21.10;99.90;;;;;;4859400;29;20467;-77
2023/06/30 05:08:17;;;;;;;20.53;19.43;;;21.10;99.90;;;;;;4855952;29;20463;-76
2023/06/30 05:10:46;;;;;;;20.00;19.00;;;21.00;99.90;;;;;;4852607;29;20468;-76
2023/06/30 05:13:14;;;;;;;20.43;19.20;;;21.00;99.90;;;;;;4853459;29;20500;-83
2023/06/30 05:15:56;;;;;;;20.00;19.10;;;21.00;99.90;;;;;;4856212;29;20479;-82
2023/06/30 05:18:44;;;;;;;20.80;19.70;;;20.90;99.90;;;;;;4857730;29;20454;-81
2023/06/30 05:24:57;;;;;;;21.83;20.63;;;20.90;99.90;;;;;;4818933;29;20889;-79
2023/06/30 05:27:25;;;;;;;21.17;19.90;;;20.90;99.90;;;;;;4856851;29;20487;-79
2023/06/30 05:29:54;;;;;;;21.53;20.23;;;20.90;99.90;;;;;;4858335;29;20843;-81
2023/06/30 05:32:27;;;;;;;22.50;21.10;;;20.90;99.90;;;;;;4857163;29;20554;-81
2023/06/30 05:34:55;;;;;;;21.43;20.20;;;21.00;99.90;;;;;;4859254;29;20568;-81
2023/06/30 05:37:28;;;;;;;21.30;20.10;;;20.90;1.00;;;;;;4863458;29;20477;-81
2023/06/30 05:39:59;;;;;;;20.70;19.70;;;20.90;1.00;;;;;;4859831;29;20934;-81
2023/06/30 05:42:27;;;;;;;21.17;20.07;;;20.90;1.00;;;;;;4861403;29;20497;-80
2023/06/30 05:44:57;;;;;;;20.60;19.50;;;20.90;1.00;;;;;;4861135;29;20493;-80
2023/06/30 05:47:25;;;;;;;21.80;20.40;;;20.90;95.80;;;;;;4856144;29;20484;-81
2023/06/30 05:49:53;;;;;;;21.70;20.60;;;20.90;99.90;;;;;;4856817;29;20500;-80
2023/06/30 05:52:24;;;;;;;21.63;20.37;;;20.90;99.90;;;;;;4856078;29;20467;-80
2023/06/30 05:54:53;;;;;;;22.43;21.10;;;20.80;99.90;;;;;;4855999;29;20971;-82
2023/06/30 05:57:23;;;;;;;22.00;20.90;;;20.80;99.90;;;;;;4860957;29;20485;-82
2023/06/30 05:59:51;;;;;;;22.70;21.40;;;20.80;1.00;;;;;;4861613;29;20522;-80
2023/06/30 06:02:20;;;;;;;23.03;21.73;;;20.80;1.00;;;;;;4857981;29;20542;-79
2023/06/30 06:04:53;;;;;;;23.73;22.30;;;20.80;31.60;;;;;;4860228;29;20482;-79
2023/06/30 06:07:23;;;;;;;22.80;21.53;;;20.90;99.90;;;;;;4869379;29;20527;-79
2023/06/30 06:09:52;;;;;;;23.47;22.07;;;20.90;1.00;;;;;;4860692;29;20471;-79
2023/06/30 06:12:22;;;;;;;24.33;22.93;;;20.80;99.90;;;;;;4855443;29;20468;-80
2023/06/30 06:14:50;;;;;;;22.40;21.30;;;20.70;1.00;;;;;;4856635;29;21008;-81
2023/06/30 06:17:19;;;;;;;24.27;22.87;;;20.80;99.90;;;;;;4863085;29;20486;-81
2023/06/30 06:19:48;;;;;;;23.47;22.17;;;20.80;98.90;;;;;;4857031;29;20990;-83
2023/06/30 06:22:16;;;;;;;23.70;22.20;;;20.80;1.00;;;;;;4853983;29;20465;-82
2023/06/30 06:24:44;;;;;;;24.30;22.80;;;20.90;99.90;;;;;;4852769;29;20479;-82
2023/06/30 06:27:15;;;;;;;24.53;22.93;;;20.90;1.00;;;;;;4858996;29;20510;-81
2023/06/30 06:29:45;;;;;;;26.13;24.07;;;20.90;1.00;;;;;;4864138;29;20476;-81
2023/06/30 06:32:13;;;;;;;24.70;23.00;;;20.90;61.00;;;;;;4863491;29;21036;-83
2023/06/30 06:34:41;;;;;;;23.50;22.30;;;21.00;1.00;;;;;;4866272;29;20495;-81
2023/06/30 06:37:09;;;;;;;23.87;22.73;;;21.00;99.90;;;;;;4857542;29;20501;-81
2023/06/30 06:39:37;;;;;;;23.73;22.40;;;21.00;99.90;;;;;;4864467;29;20851;-78
2023/06/30 06:42:07;;;;;;;24.20;22.70;;;21.00;99.90;;;;;;4862804;29;20476;-82
2023/06/30 06:44:36;;;;;;;26.07;24.13;;;21.00;99.90;;;;;;4861384;29;20872;-81
2023/06/30 06:47:44;;;;;;;24.93;23.33;;;21.00;1.00;;;;;;4863163;29;20484;-82
2023/06/30 06:50:13;;;;;;;23.90;22.30;;;20.90;99.90;;;;;;4864428;29;20471;-79
2023/06/30 06:52:42;;;;;;;24.83;23.23;;;20.90;1.00;;;;;;4865779;29;20451;-80
2023/06/30 06:55:10;;;;;;;23.90;22.53;;;20.90;99.90;;;;;;4865297;29;20460;-81
2023/06/30 06:57:38;;;;;;;24.87;23.10;;;20.90;99.90;;;;;;4860030;29;20490;-80
2023/06/30 07:00:07;;;;;;;24.77;23.40;;;20.90;99.90;;;;;;4848690;29;21006;-79
2023/06/30 07:02:35;;;;;;;26.20;24.20;;;21.00;99.90;;;;;;4862218;29;20548;-81
2023/06/30 07:05:04;;;;;;;28.30;26.20;;;21.00;1.00;;;;;;4861169;29;20487;-80
2023/06/30 07:07:38;;;;;;;27.00;25.07;;;21.00;1.00;;;;;;4857803;29;21063;-79
2023/06/30 07:10:11;;;;;;;26.03;24.37;;;21.00;1.00;;;;;;4861426;29;20460;-79
2023/06/30 07:12:40;;;;;;;26.27;24.37;;;20.90;99.90;;;;;;4859931;29;20479;-78
2023/06/30 07:15:10;;;;;;;27.47;25.03;;;21.00;1.00;;;;;;4856629;29;20460;-81
2023/06/30 07:17:38;;;;;;;28.57;26.67;;;20.90;99.90;;;;;;4857017;29;20479;-80
2023/06/30 07:20:07;;;;;;;25.93;24.23;;;20.90;99.90;;;;;;4858362;29;20467;-80
2023/06/30 07:22:38;;;;;;;27.97;25.57;;;21.00;99.90;;;;;;4863127;29;20476;-79
2023/06/30 07:25:07;;;;;;;28.27;26.27;;;21.00;1.00;;;;;;4858412;29;20496;-81
2023/06/30 07:31:56;;;;;;;27.73;25.60;;;21.00;98.70;;;;;;4842063;29;20463;-79
2023/06/30 07:34:33;;;;;;;29.40;27.10;;;20.90;99.90;;;;;;4843388;29;20559;-79
2023/06/30 07:45:33;;;;;;;29.73;27.40;;;20.90;99.90;;;;;;4862780;29;20908;-80
2023/06/30 07:48:01;;;;;;;29.27;26.90;;;20.90;1.00;;;;;;4881503;23;20514;-78
2023/06/30 07:50:29;;;;;;;30.43;28.23;;;20.90;1.00;;;;;;4884331;29;20463;-79
2023/06/30 07:52:57;;;;;;;30.03;28.00;;;20.90;99.90;;;;;;4881305;29;20522;-78
2023/06/30 07:55:26;;;;;;;28.97;26.67;;;20.90;99.90;;;;;;4882517;29;20463;-79
2023/06/30 07:57:54;;;;;;;30.00;27.90;;;20.90;1.00;;;;;;4891256;23;20740;-81
2023/06/30 08:00:28;;;;;;;30.17;27.87;;;20.90;1.00;;;;;;4863620;29;20988;-78
2023/06/30 08:02:58;;;;;;;29.30;27.10;;;20.80;99.90;;;;;;4867327;29;20964;-78
2023/06/30 08:05:26;;;;;;;28.47;26.43;;;20.90;99.90;;;;;;4865725;29;20891;-81
2023/06/30 08:07:54;;;;;;;28.30;26.20;;;20.80;1.00;;;;;;4934176;23;20509;-77
2023/06/30 08:10:23;;;;;;;28.90;26.80;;;20.80;93.90;;;;;;4879592;29;20455;-80
2023/06/30 08:12:51;;;;;;;30.90;28.40;;;20.80;55.30;;;;;;4877895;29;20593;-79
2023/06/30 08:15:19;;;;;;;29.73;27.43;;;20.80;99.90;;;;;;4883382;29;20459;-81
2023/06/30 08:17:47;;;;;;;28.63;26.30;;;20.80;97.70;;;;;;4870892;29;20476;-82
2023/06/30 08:20:26;;;;;;;29.87;27.37;;;20.80;1.00;;;;;;4866860;29;20492;-80
2023/06/30 08:22:55;;;;;;;29.77;27.47;;;20.80;99.90;;;;;;4865672;29;20515;-80
2023/06/30 08:25:24;;;;;;;27.87;25.90;;;20.80;99.90;;;;;;4865735;29;20480;-79
2023/06/30 08:27:53;;;;;;;29.43;27.23;;;20.80;1.00;;;;;;4868133;29;20479;-79
2023/06/30 08:30:22;;;;;;;29.87;27.60;;;20.80;1.00;;;;;;4864934;29;20554;-80
2023/06/30 08:32:54;;;;;;;28.80;26.60;;;20.80;99.90;;;;;;4871490;29;20999;-80
2023/06/30 08:35:26;;;;;;;28.53;26.60;;;20.80;99.90;;;;;;4870078;29;20455;-80
2023/06/30 08:37:54;;;;;;;29.10;27.07;;;20.80;22.60;;;;;;4864228;29;20492;-81
2023/06/30 08:40:26;;;;;;;29.17;26.90;;;20.80;91.30;;;;;;4855224;29;20471;-81
2023/06/30 08:42:56;;;;;;;28.67;26.63;;;20.80;1.00;;;;;;4865136;29;20459;-81
2023/06/30 08:45:29;;;;;;;28.13;26.13;;;20.70;99.90;;;;;;4869093;29;20495;-80
2023/06/30 08:48:04;;;;;;;29.00;26.90;;;20.80;1.00;;;;;;4871895;29;20867;-79
2023/06/30 08:50:34;;;;;;;29.63;27.53;;;20.80;1.00;;;;;;4871271;29;20463;-81
2023/06/30 08:53:05;;;;;;;27.83;25.70;;;20.80;1.00;;;;;;4869546;29;20450;-82
2023/06/30 08:55:34;;;;;;;28.00;25.90;;;20.80;1.00;;;;;;4867346;29;20706;-81
2023/06/30 08:58:07;;;;;;;27.90;25.90;;;20.80;1.00;;;;;;4870695;29;20527;-80
2023/06/30 09:00:53;;;;;;;27.53;25.73;;;20.80;1.00;;;;;;4863578;29;20504;-81
2023/06/30 09:03:24;;;;;;;26.23;24.30;;;20.80;1.00;;;;;;4871126;29;20459;-80
2023/06/30 09:05:56;;;;;;;25.87;24.37;;;20.80;1.00;;;;;;4868307;29;20515;-80
2023/06/30 09:08:27;;;;;;;25.10;23.60;;;20.80;1.00;;;;;;4865279;29;20475;-78
2023/06/30 09:10:57;;;;;;;26.07;24.27;;;20.80;99.90;;;;;;4866534;29;20458;-81
2023/06/30 09:13:26;;;;;;;26.63;24.30;;;20.90;1.00;;;;;;4870680;29;20452;-80
2023/06/30 09:15:58;;;;;;;25.17;23.53;;;20.90;1.00;;;;;;4870721;29;20479;-81
2023/06/30 09:18:27;;;;;;;24.63;22.90;;;20.90;99.90;;;;;;4868328;29;20560;-81
2023/06/30 09:20:57;;;;;;;24.73;23.03;;;20.90;1.00;;;;;;4870816;29;20467;-82
2023/06/30 09:23:25;;;;;;;23.40;22.00;;;20.90;99.90;;;;;;4865128;29;20481;-80
2023/06/30 09:25:54;;;;;;;23.30;21.90;;;20.90;1.00;;;;;;4852069;29;21029;-81
2023/06/30 09:28:24;;;;;;;22.77;21.57;;;21.00;1.00;;;;;;4867460;29;20537;-82
2023/06/30 09:31:03;;;;;;;23.83;22.40;;;20.90;99.90;;;;;;4869304;29;20460;-80
2023/06/30 09:33:39;;;;;;;22.70;21.50;;;21.00;38.90;;;;;;4868350;29;20473;-79
2023/06/30 09:36:21;;;;;;;22.67;21.37;;;21.00;99.90;;;;;;4886509;29;20493;-82
2023/06/30 09:39:03;;;;;;;21.23;20.13;;;21.10;1.00;;;;;;4875423;29;20463;-81
2023/06/30 09:41:36;;;;;;;22.77;21.37;;;21.10;99.90;;;;;;4871439;29;20468;-82
2023/06/30 09:44:08;;;;;;;21.73;20.53;;;21.20;1.00;;;;;;4875733;29;20468;-80
2023/06/30 09:46:38;;;;;;;22.70;21.47;;;21.20;23.70;;;;;;4995051;23;20510;-82
2023/06/30 09:52:48;;;;;;;22.63;21.37;;;21.20;99.90;;;;;;4884185;29;20956;-83
2023/06/30 09:56:36;;;;;;;23.77;22.30;;;21.20;1.00;;;;;;4884214;29;20560;-83
2023/06/30 09:59:26;;;;;;;23.10;21.67;;;21.30;31.80;;;;;;4860245;29;21242;-81
2023/06/30 10:01:55;;;;;;;23.50;22.20;;;21.20;1.00;;;;;;4867465;29;20472;-81
2023/06/30 10:18:55;;;;;;;25.17;23.33;;;21.20;1.00;;;;;;4792346;29;20478;-82
2023/06/30 10:21:26;;;;;;;26.53;24.83;;;21.10;1.00;;;;;;4826816;29;20470;-82
2023/06/30 10:23:54;;;;;;;27.10;25.00;;;21.20;1.00;;;;;;4829136;29;20473;-81
2023/06/30 10:26:24;;;;;;;27.83;25.73;;;21.20;99.90;;;;;;4820147;29;20566;-81
2023/06/30 10:28:55;;;;;;;26.77;25.07;;;21.20;99.90;;;;;;4817163;29;20462;-81
2023/06/30 10:31:24;;;;;;;27.67;25.57;;;21.10;99.90;;;;;;4821169;29;20468;-83
2023/06/30 10:33:52;;;;;;;27.20;25.50;;;21.20;99.90;;;;;;4816450;29;20480;-82
2023/06/30 10:36:24;;;;;;;27.67;25.60;;;21.10;99.90;;;;;;4822428;29;20550;-81
2023/06/30 10:38:54;;;;;;;27.80;25.93;;;21.20;99.90;;;;;;4825229;29;20893;-79
2023/06/30 10:41:22;;;;;;;28.93;26.57;;;21.20;99.90;;;;;;4845437;29;20575;-81
2023/06/30 10:44:15;;;;;;;26.77;24.97;;;21.30;1.00;;;;;;4859658;29;20471;-83
2023/06/30 10:46:52;;;;;;;27.30;25.60;;;21.20;1.00;;;;;;4847769;29;20502;-82
2023/06/30 10:49:23;;;;;;;28.77;26.40;;;21.20;99.90;;;;;;4868311;29;20469;-81
2023/06/30 10:51:53;;;;;;;28.70;26.60;;;21.30;99.90;;;;;;4866252;29;20528;-80
2023/06/30 10:54:48;;;;;;;29.20;27.20;;;21.30;99.90;;;;;;4869203;29;20467;-80
2023/06/30 10:57:20;;;;;;;28.80;26.70;;;21.30;1.00;;;;;;4865728;29;20515;-80
2023/06/30 11:00:17;;;;;;;29.27;27.27;;;21.40;1.00;;;;;;4865176;29;20480;-81
2023/06/30 11:02:48;;;;;;;30.17;27.90;;;21.30;27.20;;;;;;4864597;29;20470;-82
2023/06/30 11:06:25;;;;;;;;;;;;;;;;;;;;;
2023/06/30 11:09:43;;;;;;;29.70;27.70;;;21.30;1.00;;;;;;4830439;29;20489;-79
2023/06/30 11:12:30;;;;;;;29.80;27.23;;;21.40;82.60;;;;;;4788685;29;20574;-80
2023/06/30 11:15:00;;;;;;;29.17;27.17;;;21.50;99.90;;;;;;4786228;29;20539;-80
2023/06/30 11:18:05;;;;;;;30.07;27.87;;;21.50;26.10;;;;;;4774290;29;20511;-80
2023/06/30 11:21:06;;;;;;;32.13;29.47;;;21.50;99.90;;;;;;4791131;29;20487;-81
2023/06/30 11:23:58;;;;;;;31.17;28.93;;;21.60;99.90;;;;;;4862994;29;20555;-81
2023/06/30 11:26:37;;;;;;;31.27;28.77;;;21.60;1.00;;;;;;4857263;29;20588;-81
2023/06/30 11:29:14;;;;;;;32.70;29.93;;;21.60;28.10;;;;;;4862149;29;20472;-82
2023/06/30 11:31:42;;;;;;;30.70;28.40;;;21.70;50.50;;;;;;4859168;29;20836;-81
2023/06/30 11:34:12;;;;;;;30.33;28.13;;;21.60;1.00;;;;;;4861573;29;20474;-80
2023/06/30 11:36:40;;;;;;;32.33;29.70;;;21.60;99.90;;;;;;4865787;29;20476;-81
2023/06/30 11:39:08;;;;;;;29.37;27.33;;;21.60;25.20;;;;;;4862522;29;20899;-81
2023/06/30 11:41:37;;;;;;;31.20;29.00;;;21.60;99.90;;;;;;4862145;29;20539;-80
2023/06/30 11:44:05;;;;;;;29.67;27.40;;;21.70;99.90;;;;;;4858671;29;20464;-80
2023/06/30 11:46:36;;;;;;;31.13;28.73;;;21.70;99.90;;;;;;4864585;29;20498;-80
2023/06/30 11:49:04;;;;;;;30.03;27.93;;;21.60;99.90;;;;;;4866885;29;20479;-83
2023/06/30 11:51:36;;;;;;;30.63;28.23;;;21.70;1.00;;;;;;4868429;29;20454;-81
2023/06/30 11:54:05;;;;;;;30.67;28.43;;;21.70;99.90;;;;;;4863443;29;20497;-82
2023/06/30 11:56:34;;;;;;;31.70;29.20;;;21.70;1.00;;;;;;4868174;29;20482;-82
2023/06/30 11:59:02;;;;;;;32.90;30.10;;;21.80;99.90;;;;;;4866193;29;20476;-79
2023/06/30 12:01:32;;;;;;;34.30;31.50;;;21.80;1.00;;;;;;4861872;29;20547;-80
2023/06/30 12:04:36;;;;;;;32.90;30.10;;;21.90;1.00;;;;;;4845361;29;20488;-84
2023/06/30 12:07:06;;;;;;;32.40;29.80;;;21.90;1.00;;;;;;4857411;29;20499;-80
2023/06/30 12:09:35;;;;;;;33.90;30.90;;;21.90;1.00;;;;;;4860686;29;20471;-78
2023/06/30 12:12:07;;;;;;;32.00;29.53;;;21.90;1.00;;;;;;4865278;29;20475;-82
2023/06/30 12:14:42;;;;;;;34.43;31.50;;;22.00;1.00;;;;;;4859964;29;20974;-80
2023/06/30 12:21:54;;;;;;;31.60;29.20;;;22.00;99.90;;;;;;4831230;29;20530;-82
2023/06/30 12:24:24;;;;;;;31.40;28.93;;;22.00;99.90;;;;;;4865740;29;20472;-80
2023/06/30 12:26:53;;;;;;;33.10;30.40;;;22.10;65.20;;;;;;4880643;29;20566;-81
2023/06/30 12:29:21;;;;;;;32.60;30.07;;;22.10;99.90;;;;;;4880259;29;20488;-83
2023/06/30 12:31:50;;;;;;;31.97;29.53;;;22.20;99.90;;;;;;4885407;29;20913;-83
2023/06/30 12:34:31;;;;;;;31.50;29.10;;;22.20;99.90;;;;;;4883320;29;20510;-82
2023/06/30 12:37:00;;;;;;;34.17;31.20;;;22.20;99.90;;;;;;4883184;29;20490;-80
2023/06/30 12:39:30;;;;;;;33.43;30.70;;;22.20;1.00;;;;;;4883523;29;20469;-80
2023/06/30 12:41:59;;;;;;;34.07;31.27;;;22.20;99.90;;;;;;4882831;29;20471;-81
2023/06/30 12:44:27;;;;;;;34.53;31.87;;;22.10;1.00;;;;;;4880509;29;20471;-78
2023/06/30 12:47:05;;;;;;;32.40;29.87;;;22.20;99.90;;;;;;4879993;29;21237;-80
2023/06/30 12:49:36;;;;;;;34.00;31.30;;;22.20;99.90;;;;;;4884920;29;20491;-80
2023/06/30 12:52:05;;;;;;;32.80;30.10;;;22.30;4.80;;;;;;4885157;29;20455;-81
2023/06/30 12:54:38;;;;;;;34.67;31.80;;;22.30;1.00;;;;;;4894709;29;20471;-80
2023/06/30 12:57:10;;;;;;;32.70;29.93;;;22.30;1.00;;;;;;4879976;29;20578;-82
2023/06/30 12:59:40;;;;;;;33.33;30.93;;;22.40;1.00;;;;;;4882812;29;20463;-83
2023/06/30 13:02:09;;;;;;;32.70;30.00;;;22.40;1.00;;;;;;4886123;29;20468;-80
2023/06/30 13:04:42;;;;;;;32.53;30.07;;;22.40;99.90;;;;;;4883095;29;20447;-81
2023/06/30 13:07:14;;;;;;;33.23;30.50;;;22.50;1.00;;;;;;4885602;29;20547;-82
2023/06/30 13:09:47;;;;;;;33.67;31.07;;;22.50;99.90;;;;;;4883622;29;20581;-82
2023/06/30 13:12:18;;;;;;;35.67;32.57;;;22.60;99.90;;;;;;4881422;29;20463;-82
2023/06/30 13:14:46;;;;;;;34.00;31.20;;;22.70;99.90;;;;;;4885241;29;20467;-81
2023/06/30 13:17:16;;;;;;;33.03;30.33;;;22.70;99.90;;;;;;4875110;29;20928;-82
2023/06/30 13:19:45;;;;;;;35.40;32.30;;;22.80;99.90;;;;;;4882433;29;20542;-82
2023/06/30 13:22:14;;;;;;;34.43;31.60;;;22.90;99.90;;;;;;4880453;29;20463;-80
2023/06/30 13:24:46;;;;;;;33.77;31.10;;;22.90;99.90;;;;;;4882092;29;20498;-82
2023/06/30 13:27:16;;;;;;;33.73;31.10;;;23.00;99.90;;;;;;4879621;29;20509;-80
2023/06/30 13:29:48;;;;;;;33.37;30.60;;;23.10;99.90;;;;;;4885229;29;20511;-83
2023/06/30 13:32:20;;;;;;;33.60;31.00;;;23.10;99.90;;;;;;4880093;29;21045;-80
2023/06/30 13:34:50;;;;;;;33.70;30.87;;;23.20;99.90;;;;;;4881671;29;20463;-81
2023/06/30 13:37:19;;;;;;;31.97;29.40;;;23.20;99.90;;;;;;4883862;29;20464;-82
2023/06/30 13:39:51;;;;;;;33.90;31.10;;;23.30;45.50;;;;;;4886909;29;20502;-82
2023/06/30 13:42:26;;;;;;;34.73;31.93;;;23.30;37.50;;;;;;4884879;29;21019;-84
2023/06/30 13:44:54;;;;;;;33.03;30.37;;;23.40;33.10;;;;;;4882777;29;20463;-81
2023/06/30 13:47:41;;;;;;;35.03;31.93;;;23.40;13.50;;;;;;4886298;29;20496;-82
2023/06/30 13:50:24;;;;;;;34.10;31.27;;;23.30;1.00;;;;;;4887201;29;20467;-83
2023/06/30 13:52:57;;;;;;;35.03;31.80;;;23.30;1.00;;;;;;4882984;29;20463;-81
2023/06/30 13:55:51;;;;;;;35.33;32.33;;;23.30;1.00;;;;;;4886742;29;20467;-81
2023/06/30 13:58:19;;;;;;;33.67;30.83;;;23.20;1.00;;;;;;4877996;29;20468;-82
2023/06/30 14:00:49;;;;;;;35.90;32.70;;;23.20;1.00;;;;;;4877860;29;20857;-82
2023/06/30 14:03:18;;;;;;;33.10;30.53;;;23.20;1.00;;;;;;4882740;29;20463;-82
2023/06/30 14:05:48;;;;;;;34.07;31.27;;;23.30;1.00;;;;;;4884404;29;20471;-80
2023/06/30 14:08:18;;;;;;;34.13;31.33;;;23.30;1.00;;;;;;4886017;29;20581;-82
2023/06/30 14:10:47;;;;;;;32.93;30.13;;;23.20;1.00;;;;;;4886335;29;20494;-82
2023/06/30 14:13:16;;;;;;;34.37;31.50;;;23.20;1.00;;;;;;4874093;29;20553;-82
2023/06/30 14:15:44;;;;;;;35.97;32.93;;;23.10;1.00;;;;;;4884189;29;20539;-80
2023/06/30 14:18:12;;;;;;;32.33;29.83;;;23.10;1.00;;;;;;4884641;29;20487;-83
2023/06/30 14:20:41;;;;;;;34.23;31.50;;;23.20;1.00;;;;;;4886508;29;20448;-83
2023/06/30 14:23:09;;;;;;;33.57;30.87;;;23.20;1.00;;;;;;4888053;29;20455;-83
2023/06/30 14:25:37;;;;;;;33.20;30.30;;;23.20;1.00;;;;;;4889941;29;20974;-83
2023/06/30 14:28:06;;;;;;;32.77;30.17;;;23.30;1.00;;;;;;4886072;29;20487;-82
2023/06/30 14:30:35;;;;;;;34.53;31.50;;;23.30;35.50;;;;;;4886248;29;20595;-82
2023/06/30 14:33:03;;;;;;;34.23;31.57;;;23.30;1.00;;;;;;4887345;29;20472;-81
2023/06/30 14:35:31;;;;;;;31.93;29.40;;;23.40;1.00;;;;;;4887066;29;21000;-83
2023/06/30 14:38:00;;;;;;;31.97;29.47;;;23.40;1.00;;;;;;4883277;29;20482;-83